createdAt,value
2023-03-13T12:51:49.185Z,56.00
2023-03-13T12:55:52.297Z,64.00
2023-03-13T12:56:16.590Z,47.00
2023-03-13T12:56:50.581Z,94.00
2023-03-13T12:57:24.516Z,88.00
2023-03-13T13:00:11.000Z,88.00
2023-03-13T13:00:27.554Z,81.00
2023-03-13T13:01:33.170Z,87.00
2023-03-13T13:01:52.312Z,85.00
2023-03-13T13:02:14.129Z,87.00
2023-03-13T13:02:58.192Z,81.00
2023-03-13T13:04:15.813Z,67.00
2023-03-13T13:04:53.951Z,69.00
2023-03-13T13:05:51.746Z,66.00
2023-03-13T13:07:30.006Z,58.00
2023-03-13T13:08:00.884Z,62.00
2023-03-13T13:08:47.386Z,62.00
2023-03-13T13:11:22.014Z,55.00
2023-03-13T13:11:32.677Z,30.00
2023-03-13T13:12:52.942Z,59.00
2023-03-13T13:12:59.863Z,77.00
2023-03-13T13:13:28.281Z,90.00
2023-03-13T13:13:59.357Z,87.00
2023-03-13T13:14:27.928Z,75.00
2023-03-13T13:15:27.863Z,70.00
2023-03-13T13:15:57.897Z,64.00
2023-03-13T13:16:27.985Z,65.00
2023-03-13T13:16:58.471Z,78.00
2023-03-13T13:17:28.478Z,80.00
2023-03-13T13:18:28.399Z,103.00
2023-03-13T13:18:58.239Z,98.00
2023-03-13T13:19:57.863Z,94.00
2023-03-13T13:20:27.808Z,96.00
2023-03-13T13:20:57.892Z,98.00
2023-03-13T13:21:27.833Z,98.00
2023-03-13T13:21:58.539Z,93.00
2023-03-13T13:22:27.949Z,83.00
2023-03-13T13:22:58.448Z,82.00
2023-03-13T13:23:28.532Z,84.00
2023-03-13T13:23:58.408Z,85.00
2023-03-13T13:24:27.826Z,90.00
2023-03-13T13:24:57.881Z,88.00
2023-03-13T13:25:28.466Z,89.00
2023-03-13T13:25:57.863Z,98.00
2023-03-13T13:26:27.833Z,104.00
2023-03-13T13:26:58.440Z,99.00
2023-03-13T13:27:44.419Z,97.00
2023-03-13T13:27:59.158Z,93.00
2023-03-13T13:28:28.432Z,89.00
2023-03-13T13:28:58.568Z,85.00
2023-03-13T13:29:27.683Z,82.00
2023-03-13T13:29:58.480Z,86.00
2023-03-13T13:30:27.741Z,83.00
2023-03-13T13:30:57.915Z,84.00
2023-03-13T13:31:28.625Z,71.00
2023-03-13T13:31:58.566Z,74.00
2023-03-13T13:32:29.978Z,30.00
2023-03-13T13:32:58.762Z,89.00
2023-03-13T13:33:27.765Z,139.00
2023-03-13T13:33:57.760Z,192.00
2023-03-13T13:34:27.713Z,118.00
2023-03-13T13:35:00.610Z,78.00
2023-03-13T13:35:36.715Z,147.00
2023-03-13T13:36:05.905Z,202.00
2023-03-13T13:36:48.352Z,119.00
2023-03-13T13:39:38.423Z,175.00
2023-03-13T13:39:59.708Z,107.00
2023-03-13T13:42:49.783Z,154.00
2023-03-13T13:45:06.388Z,139.00
2023-03-13T13:45:42.529Z,139.00
2023-03-13T13:48:07.927Z,128.00
2023-03-13T13:48:22.904Z,128.00
2023-03-13T13:48:58.482Z,120.00
2023-03-13T13:49:26.203Z,121.00
2023-03-13T13:49:44.762Z,126.00
2023-03-13T13:50:24.704Z,129.00
2023-03-13T13:51:25.771Z,141.00
2023-03-13T13:51:40.415Z,139.00
2023-03-13T13:52:05.945Z,137.00
2023-03-13T13:52:39.299Z,138.00
2023-03-13T13:53:16.804Z,137.00
2023-03-13T13:53:39.519Z,120.00
2023-03-13T13:54:08.430Z,51.00
2023-03-13T13:54:42.216Z,55.00
2023-03-13T13:55:15.917Z,53.00
2023-03-13T13:55:38.595Z,46.00
2023-03-13T13:56:16.157Z,41.00
2023-03-13T13:56:42.357Z,35.00
2023-03-13T13:57:20.611Z,31.00
2023-03-13T13:59:26.404Z,33.00
2023-03-13T14:01:37.236Z,35.00
2023-03-13T14:02:08.549Z,35.00
2023-03-13T14:02:36.376Z,30.00
2023-03-13T14:09:45.920Z,2.00
2023-03-13T14:10:20.027Z,2.00
2023-03-13T14:10:43.979Z,1.00
2023-03-13T14:11:18.001Z,2.00
2023-03-13T14:12:20.688Z,5.00
2023-03-13T14:13:44.180Z,7.00
2023-03-13T14:13:51.078Z,4.00
2023-03-13T14:14:27.124Z,4.00
2023-03-13T14:18:31.800Z,4.00
2023-03-13T14:18:52.532Z,42.00
2023-03-13T14:19:17.253Z,40.00
2023-03-13T14:19:49.593Z,30.00
2023-03-13T14:20:13.200Z,80.00
2023-03-13T14:20:41.364Z,59.00
2023-03-13T14:22:29.539Z,81.00
2023-03-13T14:22:36.935Z,101.00
2023-03-13T14:23:06.503Z,84.00
2023-03-13T14:23:36.788Z,67.00
2023-03-13T14:24:04.562Z,58.00
2023-03-13T14:24:37.628Z,50.00
2023-03-13T14:25:15.796Z,50.00
2023-03-13T14:25:35.198Z,51.00
2023-03-13T14:26:06.316Z,48.00
2023-03-13T14:26:36.083Z,55.00
2023-03-13T14:27:07.668Z,57.00
2023-03-13T14:27:35.724Z,65.00
2023-03-13T14:30:40.931Z,75.00
2023-03-13T14:30:46.152Z,68.00
2023-03-13T14:31:27.012Z,99.00
2023-03-13T14:31:47.496Z,123.00
2023-03-13T14:32:17.184Z,94.00
2023-03-13T14:32:47.608Z,98.00
2023-03-13T14:33:15.881Z,96.00
2023-03-13T14:33:48.597Z,95.00
2023-03-13T14:34:16.288Z,94.00
2023-03-13T14:34:51.059Z,95.00
2023-03-13T14:37:48.440Z,102.00
2023-03-13T14:37:59.007Z,101.00
2023-03-13T14:38:27.077Z,78.00
2023-03-13T14:39:35.840Z,74.00
2023-03-13T14:39:50.047Z,76.00
2023-03-13T14:40:12.581Z,65.00
2023-03-13T14:40:43.109Z,57.00
2023-03-13T14:41:13.810Z,48.00
2023-03-13T14:43:52.056Z,46.00
2023-03-13T14:44:02.084Z,43.00
2023-03-13T14:44:33.587Z,42.00
2023-03-13T14:45:03.508Z,43.00
